Time;durP1;ratioP1;P1;durP2;ratioP2;P2;SDS_P1;SDS_P2;PMS_P1;PMS_P2;Temp;Humidity;BMP_temperature;BMP_pressure;BME280_temperature;BME280_humidity;BME280_pressure;Samples;Min_cycle;Max_cycle;Signal;HPM_P1;HPM_P2
2022/04/05 00:00:36;;;;;;;12.73;8.25;;;;;;;;;;5045096;28;20104;-49
2022/04/05 00:03:02;;;;;;;19.17;9.07;;;;;;;;;;5035941;28;20037;-51
2022/04/05 00:05:28;;;;;;;13.27;8.40;;;;;;;;;;5038372;28;20025;-48
2022/04/05 00:07:54;;;;;;;12.85;7.50;;;;;;;;;;5041011;28;20075;-51
2022/04/05 00:10:24;;;;;;;13.65;7.38;;;;;;;;;;5044062;28;20048;-53
2022/04/05 00:12:50;;;;;;;13.65;7.35;;;;;;;;;;5044718;28;20531;-53
2022/04/05 00:15:16;;;;;;;11.80;7.13;;;;;;;;;;5038925;28;20037;-55
2022/04/05 00:17:42;;;;;;;11.48;6.47;;;;;;;;;;5049570;28;20025;-51
2022/04/05 00:20:08;;;;;;;9.68;5.93;;;;;;;;;;5044402;28;20029;-49
2022/04/05 00:22:35;;;;;;;8.65;5.28;;;;;;;;;;5035400;28;20067;-49
2022/04/05 00:25:01;;;;;;;7.85;5.43;;;;;;;;;;5039937;28;20036;-49
2022/04/05 00:27:27;;;;;;;8.27;5.10;;;;;;;;;;5036992;28;20025;-49
2022/04/05 00:29:55;;;;;;;8.88;5.53;;;;;;;;;;5042730;28;20037;-49
2022/04/05 00:32:21;;;;;;;9.27;5.07;;;;;;;;;;5040300;28;20112;-51
2022/04/05 00:34:47;;;;;;;13.85;5.40;;;;;;;;;;5038399;28;20504;-52
2022/04/05 00:37:13;;;;;;;9.38;5.55;;;;;;;;;;5041904;28;20037;-51
2022/04/05 00:39:39;;;;;;;8.77;4.47;;;;;;;;;;5044601;28;20021;-54
2022/04/05 00:42:05;;;;;;;6.18;4.35;;;;;;;;;;5044818;28;20041;-52
2022/04/05 00:44:31;;;;;;;9.93;5.47;;;;;;;;;;5045860;28;20028;-53
2022/04/05 00:47:01;;;;;;;9.63;4.40;;;;;;;;;;5036241;28;20382;-50
2022/04/05 00:49:30;;;;;;;10.60;5.45;;;;;;;;;;5038931;28;20029;-53
2022/04/05 00:51:57;;;;;;;7.68;4.05;;;;;;;;;;5042871;28;20064;-52
2022/04/05 00:54:23;;;;;;;7.15;4.40;;;;;;;;;;5037200;28;20041;-50
2022/04/05 00:56:50;;;;;;;6.13;3.58;;;;;;;;;;5046784;28;20465;-49
2022/04/05 00:59:18;;;;;;;7.00;3.50;;;;;;;;;;5045040;28;20029;-49
2022/04/05 01:01:46;;;;;;;4.30;2.85;;;;;;;;;;5042284;28;20099;-49
2022/04/05 01:04:12;;;;;;;7.93;3.10;;;;;;;;;;5042948;28;20025;-48
2022/04/05 01:06:46;;;;;;;6.50;3.30;;;;;;;;;;5039221;28;20033;-50
2022/04/05 01:09:12;;;;;;;6.22;2.70;;;;;;;;;;5038838;28;20037;-51
2022/04/05 01:11:38;;;;;;;6.60;2.95;;;;;;;;;;5035691;28;20370;-48
2022/04/05 01:14:04;;;;;;;7.85;2.83;;;;;;;;;;5043839;28;20025;-51
2022/04/05 01:16:31;;;;;;;5.95;2.90;;;;;;;;;;5040285;28;20029;-52
2022/04/05 01:18:57;;;;;;;9.13;2.95;;;;;;;;;;5038000;28;20086;-51
2022/04/05 01:21:23;;;;;;;8.60;2.55;;;;;;;;;;5038204;28;20056;-54
2022/04/05 01:24:08;;;;;;;5.18;2.30;;;;;;;;;;5031503;28;20335;-51
2022/04/05 01:26:38;;;;;;;6.55;2.33;;;;;;;;;;5039464;28;20021;-49
2022/04/05 01:29:04;;;;;;;7.60;2.45;;;;;;;;;;5037607;28;20037;-50
2022/04/05 01:31:30;;;;;;;6.50;2.63;;;;;;;;;;5036871;28;20087;-51
2022/04/05 01:33:57;;;;;;;4.63;2.03;;;;;;;;;;5034837;28;20065;-51
2022/04/05 01:36:23;;;;;;;4.15;1.73;;;;;;;;;;5033852;28;20033;-50
2022/04/05 01:38:49;;;;;;;4.72;1.83;;;;;;;;;;5044010;28;20029;-50
2022/04/05 01:41:15;;;;;;;3.13;1.30;;;;;;;;;;5037999;28;20029;-49
2022/04/05 01:43:41;;;;;;;7.18;1.73;;;;;;;;;;5041122;28;20022;-51
2022/04/05 01:46:07;;;;;;;2.38;1.30;;;;;;;;;;5044819;28;20029;-49
2022/04/05 01:48:33;;;;;;;7.82;1.40;;;;;;;;;;5035790;28;20021;-51
2022/04/05 01:50:59;;;;;;;4.20;1.45;;;;;;;;;;5038335;28;20028;-49
2022/04/05 01:53:25;;;;;;;7.13;1.25;;;;;;;;;;5046642;28;20029;-52
2022/04/05 01:55:51;;;;;;;7.57;1.33;;;;;;;;;;5038841;28;20045;-49
2022/04/05 01:58:17;;;;;;;4.78;1.10;;;;;;;;;;5039792;28;20013;-51
2022/04/05 02:00:43;;;;;;;6.20;1.17;;;;;;;;;;5041688;28;20033;-49
2022/04/05 02:03:09;;;;;;;5.22;1.10;;;;;;;;;;5047582;28;20108;-52
2022/04/05 02:05:35;;;;;;;1.85;0.80;;;;;;;;;;5053305;28;20032;-52
2022/04/05 02:08:01;;;;;;;1.88;1.02;;;;;;;;;;5044931;28;20070;-52
2022/04/05 02:10:27;;;;;;;2.33;1.10;;;;;;;;;;5038656;28;20033;-49
2022/04/05 02:12:53;;;;;;;2.55;1.05;;;;;;;;;;5048193;28;20074;-49
2022/04/05 02:15:19;;;;;;;2.88;1.15;;;;;;;;;;5048581;28;20406;-50
2022/04/05 02:17:45;;;;;;;3.78;1.67;;;;;;;;;;5038660;28;20034;-49
2022/04/05 02:20:13;;;;;;;2.05;0.98;;;;;;;;;;5044276;28;20035;-49
2022/04/05 02:22:39;;;;;;;7.13;1.20;;;;;;;;;;5044205;28;20492;-50
2022/04/05 02:25:05;;;;;;;4.70;0.98;;;;;;;;;;5048810;28;20060;-50
2022/04/05 02:27:31;;;;;;;2.80;1.00;;;;;;;;;;5042671;28;20105;-50
2022/04/05 02:29:57;;;;;;;3.17;1.05;;;;;;;;;;5041992;28;20037;-49
2022/04/05 02:32:23;;;;;;;2.40;1.00;;;;;;;;;;5043738;28;20104;-51
2022/04/05 02:34:49;;;;;;;4.32;0.90;;;;;;;;;;5042557;28;20032;-52
2022/04/05 02:37:15;;;;;;;5.20;0.95;;;;;;;;;;5038903;28;20040;-49
2022/04/05 02:39:41;;;;;;;4.22;0.90;;;;;;;;;;5047010;28;20021;-50
2022/04/05 02:42:07;;;;;;;4.75;1.05;;;;;;;;;;5038718;28;20021;-51
2022/04/05 02:44:34;;;;;;;11.75;1.88;;;;;;;;;;5046532;28;20022;-50
2022/04/05 02:47:00;;;;;;;6.35;1.00;;;;;;;;;;5040055;28;20030;-50
2022/04/05 02:49:26;;;;;;;3.42;0.95;;;;;;;;;;5047022;28;20029;-50
2022/04/05 02:51:52;;;;;;;10.02;2.08;;;;;;;;;;5049600;28;20025;-50
2022/04/05 02:54:18;;;;;;;4.53;1.00;;;;;;;;;;5040979;28;20465;-50
2022/04/05 02:56:44;;;;;;;2.35;1.00;;;;;;;;;;5050178;28;20444;-50
2022/04/05 02:59:10;;;;;;;2.90;1.00;;;;;;;;;;5049217;28;20021;-50
2022/04/05 03:01:36;;;;;;;4.47;1.20;;;;;;;;;;5045646;28;20029;-52
2022/04/05 03:04:02;;;;;;;4.53;1.00;;;;;;;;;;5034509;28;20028;-53
2022/04/05 03:06:28;;;;;;;2.08;1.02;;;;;;;;;;5049657;28;20043;-50
2022/04/05 03:08:56;;;;;;;8.32;1.20;;;;;;;;;;5040462;28;20351;-52
2022/04/05 03:11:22;;;;;;;6.90;1.15;;;;;;;;;;5046600;28;20485;-49
2022/04/05 03:13:48;;;;;;;3.42;0.90;;;;;;;;;;5042774;28;20031;-49
2022/04/05 03:16:14;;;;;;;3.17;1.00;;;;;;;;;;5040683;28;20431;-50
2022/04/05 03:18:40;;;;;;;5.72;1.05;;;;;;;;;;5048827;28;20021;-50
2022/04/05 03:21:06;;;;;;;1.95;1.10;;;;;;;;;;5045158;28;20453;-50
2022/04/05 03:23:32;;;;;;;2.55;0.65;;;;;;;;;;5034471;28;20296;-49
2022/04/05 03:25:58;;;;;;;11.82;1.80;;;;;;;;;;5042580;28;20115;-50
2022/04/05 03:28:25;;;;;;;4.97;1.20;;;;;;;;;;5036350;28;20087;-49
2022/04/05 03:30:51;;;;;;;2.55;0.80;;;;;;;;;;5042081;28;20025;-48
2022/04/05 03:33:17;;;;;;;4.35;0.90;;;;;;;;;;5043659;28;20043;-49
2022/04/05 03:35:43;;;;;;;2.22;1.02;;;;;;;;;;5036086;28;20040;-49
2022/04/05 03:38:09;;;;;;;4.03;0.80;;;;;;;;;;5047489;28;20025;-49
2022/04/05 03:40:35;;;;;;;7.45;1.23;;;;;;;;;;5042719;28;20025;-50
2022/04/05 03:43:01;;;;;;;6.85;0.90;;;;;;;;;;5049636;28;20017;-49
2022/04/05 03:45:27;;;;;;;4.35;0.85;;;;;;;;;;5035498;28;20047;-55
2022/04/05 03:47:53;;;;;;;4.35;0.95;;;;;;;;;;5042985;28;20033;-50
2022/04/05 03:50:19;;;;;;;7.13;1.38;;;;;;;;;;5051768;28;20033;-49
2022/04/05 03:52:45;;;;;;;3.83;1.02;;;;;;;;;;5042416;28;20026;-51
2022/04/05 03:55:11;;;;;;;5.55;1.13;;;;;;;;;;5005352;28;970361;-50
2022/04/05 03:57:37;;;;;;;7.47;1.27;;;;;;;;;;5041182;28;20033;-51
2022/04/05 04:00:04;;;;;;;7.20;1.48;;;;;;;;;;5045112;28;20057;-49
2022/04/05 04:02:34;;;;;;;4.80;0.95;;;;;;;;;;5046857;28;20021;-53
2022/04/05 04:05:00;;;;;;;2.03;0.80;;;;;;;;;;5039741;28;20106;-49
2022/04/05 04:07:26;;;;;;;9.80;1.23;;;;;;;;;;5037928;28;20029;-49
2022/04/05 04:09:52;;;;;;;3.25;1.10;;;;;;;;;;5044073;28;20074;-51
2022/04/05 04:12:18;;;;;;;4.70;0.88;;;;;;;;;;5039915;28;20049;-54
2022/04/05 04:14:44;;;;;;;3.28;1.10;;;;;;;;;;5049724;28;20104;-54
2022/04/05 04:17:10;;;;;;;2.60;1.15;;;;;;;;;;5039649;28;20029;-51
2022/04/05 04:19:36;;;;;;;3.65;1.20;;;;;;;;;;5043769;28;20086;-49
2022/04/05 04:22:02;;;;;;;7.32;1.50;;;;;;;;;;5041092;28;20025;-49
2022/04/05 04:24:28;;;;;;;8.48;1.35;;;;;;;;;;5035987;28;20112;-52
2022/04/05 04:26:54;;;;;;;6.97;1.23;;;;;;;;;;5032711;28;20029;-50
2022/04/05 04:29:20;;;;;;;5.57;1.30;;;;;;;;;;5037094;28;20102;-50
2022/04/05 04:31:46;;;;;;;10.32;2.15;;;;;;;;;;5047859;28;20029;-49
2022/04/05 04:34:12;;;;;;;8.52;1.67;;;;;;;;;;5039936;28;20040;-49
2022/04/05 04:36:38;;;;;;;8.05;1.45;;;;;;;;;;5048075;28;20036;-50
2022/04/05 04:39:04;;;;;;;2.35;1.05;;;;;;;;;;5043901;28;20414;-49
2022/04/05 04:41:30;;;;;;;7.13;1.70;;;;;;;;;;5044104;28;20491;-50
2022/04/05 04:43:56;;;;;;;4.10;1.33;;;;;;;;;;5047011;28;20036;-49
2022/04/05 04:46:22;;;;;;;3.28;1.20;;;;;;;;;;5039488;28;20029;-53
2022/04/05 04:48:48;;;;;;;4.63;1.20;;;;;;;;;;5048126;28;20198;-49
2022/04/05 04:51:14;;;;;;;4.30;1.30;;;;;;;;;;5050389;28;20040;-51
2022/04/05 04:53:40;;;;;;;6.85;1.73;;;;;;;;;;5040616;28;20040;-54
2022/04/05 04:56:06;;;;;;;9.75;1.63;;;;;;;;;;5037020;28;20116;-49
2022/04/05 04:58:33;;;;;;;9.35;1.75;;;;;;;;;;5042178;28;20083;-51
2022/04/05 05:00:59;;;;;;;6.75;2.10;;;;;;;;;;5045030;28;20477;-49
2022/04/05 05:03:25;;;;;;;14.52;1.92;;;;;;;;;;5033930;28;20029;-50
2022/04/05 05:05:51;;;;;;;7.30;1.40;;;;;;;;;;5041213;28;20033;-49
2022/04/05 05:08:17;;;;;;;10.75;1.95;;;;;;;;;;5043948;28;20029;-49
2022/04/05 05:10:43;;;;;;;4.03;1.80;;;;;;;;;;5033797;28;20030;-52
2022/04/05 05:13:09;;;;;;;5.05;1.42;;;;;;;;;;5043477;28;20068;-49
2022/04/05 05:15:35;;;;;;;10.95;1.73;;;;;;;;;;5039712;28;20029;-49
2022/04/05 05:18:01;;;;;;;5.00;2.25;;;;;;;;;;5043945;28;20037;-52
2022/04/05 05:20:27;;;;;;;7.38;1.77;;;;;;;;;;5038060;28;20037;-49
2022/04/05 05:22:53;;;;;;;11.50;2.08;;;;;;;;;;5044817;28;20045;-49
2022/04/05 05:25:19;;;;;;;8.27;1.30;;;;;;;;;;5033169;28;20104;-50
2022/04/05 05:27:45;;;;;;;5.90;1.83;;;;;;;;;;5044171;28;20029;-51
2022/04/05 05:30:11;;;;;;;12.77;2.10;;;;;;;;;;5036380;28;20378;-52
2022/04/05 05:32:47;;;;;;;3.72;1.35;;;;;;;;;;5049545;28;20437;-49
2022/04/05 05:35:20;;;;;;;12.38;2.08;;;;;;;;;;5040974;28;20453;-50
2022/04/05 05:37:46;;;;;;;4.80;1.52;;;;;;;;;;5031919;28;20029;-50
2022/04/05 05:40:13;;;;;;;6.03;1.70;;;;;;;;;;5036193;28;20065;-49
2022/04/05 05:42:51;;;;;;;12.32;1.42;;;;;;;;;;5045387;28;20048;-49
2022/04/05 05:45:17;;;;;;;5.55;1.83;;;;;;;;;;5041037;28;20029;-49
2022/04/05 05:47:43;;;;;;;4.88;1.42;;;;;;;;;;5042204;28;20045;-50
2022/04/05 05:50:12;;;;;;;5.60;1.42;;;;;;;;;;5039250;28;20060;-48
2022/04/05 05:52:38;;;;;;;7.07;1.70;;;;;;;;;;5050617;28;20029;-49
2022/04/05 05:55:04;;;;;;;4.30;1.70;;;;;;;;;;5039017;28;20052;-49
2022/04/05 05:57:31;;;;;;;4.18;1.30;;;;;;;;;;5038222;28;20405;-51
2022/04/05 05:59:57;;;;;;;7.38;1.35;;;;;;;;;;5047994;28;20063;-52
2022/04/05 06:02:22;;;;;;;6.78;1.30;;;;;;;;;;5043468;28;20393;-53
2022/04/05 06:04:48;;;;;;;5.00;1.33;;;;;;;;;;5049350;28;20363;-50
2022/04/05 06:07:15;;;;;;;13.07;1.00;;;;;;;;;;5041804;28;20382;-53
2022/04/05 06:09:40;;;;;;;2.00;0.95;;;;;;;;;;5042047;28;20040;-49
2022/04/05 06:12:07;;;;;;;5.13;1.20;;;;;;;;;;5041892;28;20029;-49
2022/04/05 06:14:33;;;;;;;4.30;1.10;;;;;;;;;;5045758;28;20109;-49
2022/04/05 06:16:59;;;;;;;6.03;1.02;;;;;;;;;;5035628;28;20029;-50
2022/04/05 06:19:25;;;;;;;6.68;1.52;;;;;;;;;;5035537;28;20054;-49
2022/04/05 06:21:51;;;;;;;10.75;1.50;;;;;;;;;;5038018;28;20029;-48
2022/04/05 06:24:18;;;;;;;3.92;1.10;;;;;;;;;;5036508;28;20386;-49
2022/04/05 06:26:44;;;;;;;5.15;1.08;;;;;;;;;;5043675;28;20088;-49
2022/04/05 06:29:10;;;;;;;1.80;1.10;;;;;;;;;;5046996;28;20102;-52
2022/04/05 06:31:36;;;;;;;3.45;1.00;;;;;;;;;;5045864;28;20025;-54
2022/04/05 06:34:02;;;;;;;2.97;1.52;;;;;;;;;;5038394;28;20492;-51
2022/04/05 06:36:29;;;;;;;3.40;1.10;;;;;;;;;;5034252;28;20029;-51
2022/04/05 06:38:55;;;;;;;5.90;0.93;;;;;;;;;;5045082;28;20519;-51
2022/04/05 06:41:21;;;;;;;4.95;1.40;;;;;;;;;;5035561;28;20022;-52
2022/04/05 06:43:47;;;;;;;5.28;1.13;;;;;;;;;;5037055;28;20448;-55
2022/04/05 06:46:16;;;;;;;4.90;1.58;;;;;;;;;;5035964;28;20035;-52
2022/04/05 06:48:42;;;;;;;5.22;1.67;;;;;;;;;;5043481;28;20032;-50
2022/04/05 06:51:08;;;;;;;3.10;1.25;;;;;;;;;;5041443;28;20079;-49
2022/04/05 06:53:34;;;;;;;6.88;1.15;;;;;;;;;;5040799;28;20138;-49
2022/04/05 06:56:00;;;;;;;3.28;1.00;;;;;;;;;;5039520;28;20462;-49
2022/04/05 06:58:26;;;;;;;5.57;1.00;;;;;;;;;;5039867;28;20017;-49
2022/04/05 07:00:52;;;;;;;3.63;1.00;;;;;;;;;;5049554;28;20431;-51
2022/04/05 07:03:18;;;;;;;5.15;1.08;;;;;;;;;;5039086;28;20040;-50
2022/04/05 07:05:45;;;;;;;7.80;1.52;;;;;;;;;;5048057;28;20524;-51
2022/04/05 07:08:11;;;;;;;3.28;0.90;;;;;;;;;;5045227;28;20057;-49
2022/04/05 07:10:37;;;;;;;2.25;1.02;;;;;;;;;;5043063;28;20022;-50
2022/04/05 07:13:04;;;;;;;4.93;1.00;;;;;;;;;;5036047;28;20148;-54
2022/04/05 07:15:30;;;;;;;6.65;1.00;;;;;;;;;;5043905;28;20021;-49
2022/04/05 07:17:56;;;;;;;4.22;0.93;;;;;;;;;;5039291;28;20079;-50
2022/04/05 07:20:22;;;;;;;2.22;0.55;;;;;;;;;;5053803;28;20515;-49
2022/04/05 07:22:49;;;;;;;5.28;1.05;;;;;;;;;;5046444;28;20025;-49
2022/04/05 07:25:20;;;;;;;2.97;0.90;;;;;;;;;;5045436;28;20029;-48
2022/04/05 07:27:46;;;;;;;1.90;0.70;;;;;;;;;;5047896;28;20025;-49
2022/04/05 07:30:13;;;;;;;2.25;0.60;;;;;;;;;;5038956;28;20028;-49
2022/04/05 07:32:40;;;;;;;3.83;0.75;;;;;;;;;;5038034;28;20056;-50
2022/04/05 07:35:07;;;;;;;2.45;0.70;;;;;;;;;;5047621;28;20035;-49
2022/04/05 07:37:33;;;;;;;2.95;0.88;;;;;;;;;;5037177;28;20033;-50
2022/04/05 07:39:59;;;;;;;6.90;1.02;;;;;;;;;;5043947;28;20361;-49
2022/04/05 07:42:26;;;;;;;4.00;0.80;;;;;;;;;;5045249;28;20049;-51
2022/04/05 07:44:52;;;;;;;3.92;0.88;;;;;;;;;;5034846;28;20160;-52
2022/04/05 07:47:18;;;;;;;4.80;0.93;;;;;;;;;;5035526;28;20101;-50
2022/04/05 07:49:44;;;;;;;3.20;0.75;;;;;;;;;;5040911;28;20029;-50
2022/04/05 07:52:11;;;;;;;2.65;0.73;;;;;;;;;;5045334;28;20477;-51
2022/04/05 07:54:37;;;;;;;4.80;1.00;;;;;;;;;;5033673;28;20088;-49
2022/04/05 07:57:03;;;;;;;9.52;1.33;;;;;;;;;;5043630;28;20082;-51
2022/04/05 07:59:29;;;;;;;5.80;0.98;;;;;;;;;;5038600;28;20052;-50
2022/04/05 08:01:55;;;;;;;7.03;1.35;;;;;;;;;;5038179;28;20034;-49
2022/04/05 08:04:21;;;;;;;2.58;0.93;;;;;;;;;;5042990;28;20021;-50
2022/04/05 08:06:47;;;;;;;2.75;1.10;;;;;;;;;;5044964;28;20037;-49
2022/04/05 08:09:13;;;;;;;3.50;0.75;;;;;;;;;;5035718;28;20041;-49
2022/04/05 08:11:39;;;;;;;6.38;1.05;;;;;;;;;;5047247;28;20029;-49
2022/04/05 08:14:05;;;;;;;3.90;1.58;;;;;;;;;;5049016;28;20071;-49
2022/04/05 08:16:31;;;;;;;3.63;0.80;;;;;;;;;;5047512;28;20040;-50
2022/04/05 08:18:57;;;;;;;2.55;0.70;;;;;;;;;;5052002;28;20390;-52
2022/04/05 08:21:23;;;;;;;1.77;0.63;;;;;;;;;;5053045;28;20033;-50
2022/04/05 08:23:52;;;;;;;2.72;0.88;;;;;;;;;;5044255;28;20032;-50
2022/04/05 08:26:18;;;;;;;3.33;0.70;;;;;;;;;;5053074;28;20562;-53
2022/04/05 08:28:44;;;;;;;3.20;0.77;;;;;;;;;;5042342;28;20021;-49
2022/04/05 08:31:10;;;;;;;5.47;0.88;;;;;;;;;;5045196;28;20116;-48
2022/04/05 08:33:36;;;;;;;4.45;1.10;;;;;;;;;;5042547;28;20059;-49
2022/04/05 08:36:02;;;;;;;2.20;0.50;;;;;;;;;;5036597;28;20033;-49
2022/04/05 08:38:28;;;;;;;3.25;0.80;;;;;;;;;;5042624;28;20095;-49
2022/04/05 08:40:55;;;;;;;5.60;0.70;;;;;;;;;;5045613;28;20033;-49
2022/04/05 08:43:21;;;;;;;2.97;0.70;;;;;;;;;;5050717;28;20024;-48
2022/04/05 08:45:54;;;;;;;1.88;0.75;;;;;;;;;;5043823;28;20167;-49
2022/04/05 08:48:26;;;;;;;6.47;0.60;;;;;;;;;;5045649;28;20083;-51
2022/04/05 08:50:52;;;;;;;3.90;0.70;;;;;;;;;;5051505;28;20029;-50
2022/04/05 08:53:18;;;;;;;3.15;0.57;;;;;;;;;;5044375;28;20083;-48
2022/04/05 08:55:45;;;;;;;4.15;0.80;;;;;;;;;;5043037;28;20474;-49
2022/04/05 08:58:13;;;;;;;4.25;0.77;;;;;;;;;;5035174;28;20055;-51
2022/04/05 09:00:39;;;;;;;3.95;0.80;;;;;;;;;;5041546;28;20051;-52
2022/04/05 09:03:06;;;;;;;2.97;1.27;;;;;;;;;;5037376;28;20037;-50
2022/04/05 09:05:36;;;;;;;4.68;1.00;;;;;;;;;;5047594;28;20442;-50
2022/04/05 09:08:21;;;;;;;3.88;1.02;;;;;;;;;;5042597;28;20482;-50
2022/04/05 09:10:48;;;;;;;2.53;0.88;;;;;;;;;;5034841;28;20029;-51
2022/04/05 09:13:17;;;;;;;2.78;1.10;;;;;;;;;;5040377;28;20025;-52
2022/04/05 09:15:44;;;;;;;5.60;0.95;;;;;;;;;;5037049;28;20037;-47
2022/04/05 09:18:10;;;;;;;5.28;1.02;;;;;;;;;;5051943;28;20111;-50
2022/04/05 09:20:47;;;;;;;4.32;1.08;;;;;;;;;;5037093;28;20032;-48
2022/04/05 09:23:29;;;;;;;5.07;0.95;;;;;;;;;;5035548;28;20025;-46
2022/04/05 09:26:05;;;;;;;4.17;0.87;;;;;;;;;;5040115;28;20079;-47
2022/04/05 09:28:37;;;;;;;5.07;1.52;;;;;;;;;;5049498;28;20025;-49
2022/04/05 09:31:05;;;;;;;3.22;0.68;;;;;;;;;;5042956;28;20490;-47
2022/04/05 09:33:32;;;;;;;2.47;0.80;;;;;;;;;;5039510;28;20075;-47
2022/04/05 09:36:07;;;;;;;3.55;0.70;;;;;;;;;;5035615;28;20025;-47
2022/04/05 09:38:33;;;;;;;4.30;0.80;;;;;;;;;;5045702;28;20477;-48
2022/04/05 09:41:14;;;;;;;4.15;0.98;;;;;;;;;;5049907;28;20029;-49
2022/04/05 09:43:50;;;;;;;3.00;1.13;;;;;;;;;;5035770;28;20021;-48
2022/04/05 09:46:16;;;;;;;5.35;1.10;;;;;;;;;;5042646;28;20025;-50
2022/04/05 09:48:42;;;;;;;4.20;0.80;;;;;;;;;;5039251;28;20040;-47
2022/04/05 09:51:17;;;;;;;2.67;0.80;;;;;;;;;;5033189;28;20095;-48
2022/04/05 09:53:46;;;;;;;4.47;0.70;;;;;;;;;;5048599;28;20043;-48
2022/04/05 09:56:16;;;;;;;6.03;0.73;;;;;;;;;;5031480;28;20048;-49
2022/04/05 09:58:44;;;;;;;5.68;0.70;;;;;;;;;;5030541;28;20026;-51
2022/04/05 10:01:11;;;;;;;3.88;0.70;;;;;;;;;;5040732;28;20045;-50
2022/04/05 10:03:44;;;;;;;3.05;0.98;;;;;;;;;;5034505;28;20377;-50
2022/04/05 10:06:10;;;;;;;1.88;0.68;;;;;;;;;;5040841;28;20059;-53
2022/04/05 10:08:37;;;;;;;2.47;0.95;;;;;;;;;;5035597;28;20026;-53
2022/04/05 10:11:04;;;;;;;2.80;1.10;;;;;;;;;;5032286;28;20080;-48
2022/04/05 10:13:30;;;;;;;1.48;0.65;;;;;;;;;;5034514;28;20029;-50
2022/04/05 10:15:57;;;;;;;5.65;0.80;;;;;;;;;;5042563;28;20036;-50
2022/04/05 10:18:31;;;;;;;3.33;0.90;;;;;;;;;;5041880;28;20025;-48
2022/04/05 10:20:57;;;;;;;4.75;0.68;;;;;;;;;;5038517;28;20079;-49
2022/04/05 10:23:23;;;;;;;2.97;0.85;;;;;;;;;;5036973;28;20030;-52
2022/04/05 10:25:51;;;;;;;3.00;0.70;;;;;;;;;;5035958;28;20038;-50
2022/04/05 10:28:18;;;;;;;3.00;0.85;;;;;;;;;;5048720;28;20030;-48
2022/04/05 10:30:48;;;;;;;2.95;0.82;;;;;;;;;;5048073;28;20033;-49
2022/04/05 10:33:26;;;;;;;5.70;0.77;;;;;;;;;;5045945;28;20048;-48
2022/04/05 10:35:57;;;;;;;3.50;0.85;;;;;;;;;;5041362;28;20548;-49
2022/04/05 10:38:24;;;;;;;2.30;0.45;;;;;;;;;;5041172;28;20026;-50
2022/04/05 10:41:09;;;;;;;6.18;0.80;;;;;;;;;;5045491;28;20379;-49
2022/04/05 10:43:38;;;;;;;3.95;0.85;;;;;;;;;;5035848;28;20029;-49
2022/04/05 10:46:04;;;;;;;5.05;1.10;;;;;;;;;;5046877;28;20047;-48
2022/04/05 10:48:31;;;;;;;2.15;0.57;;;;;;;;;;5037686;28;20046;-52
2022/04/05 10:51:00;;;;;;;5.72;0.90;;;;;;;;;;5035450;28;20051;-50
2022/04/05 10:53:34;;;;;;;3.50;0.77;;;;;;;;;;5045522;28;20021;-49
2022/04/05 10:56:00;;;;;;;;;;;;;;;;;;5044904;28;20084;-51
2022/04/05 10:58:25;;;;;;;1.98;0.60;;;;;;;;;;5038229;28;19952;-50
2022/04/05 11:00:51;;;;;;;2.80;0.63;;;;;;;;;;5038014;28;20029;-50
2022/04/05 11:03:17;;;;;;;5.38;0.93;;;;;;;;;;5034284;28;20418;-48
2022/04/05 11:05:44;;;;;;;1.98;0.40;;;;;;;;;;5041521;28;20024;-51
2022/04/05 11:08:11;;;;;;;2.30;0.75;;;;;;;;;;5040835;28;20033;-52
2022/04/05 11:10:37;;;;;;;3.00;0.70;;;;;;;;;;5037385;28;20029;-50
2022/04/05 11:13:08;;;;;;;2.22;0.63;;;;;;;;;;5049488;28;20039;-48
2022/04/05 11:15:49;;;;;;;2.95;0.65;;;;;;;;;;5036527;28;20029;-50
2022/04/05 11:18:25;;;;;;;2.88;0.50;;;;;;;;;;5039967;28;20116;-48
2022/04/05 11:20:55;;;;;;;1.52;0.50;;;;;;;;;;5040863;28;20029;-48
2022/04/05 11:23:37;;;;;;;2.55;0.65;;;;;;;;;;5038386;28;20037;-49
2022/04/05 11:26:22;;;;;;;3.58;0.52;;;;;;;;;;5044375;28;20048;-48
2022/04/05 11:28:48;;;;;;;2.15;0.52;;;;;;;;;;5048874;28;20018;-48
2022/04/05 11:31:27;;;;;;;2.80;0.65;;;;;;;;;;5049795;28;20417;-48
2022/04/05 11:33:53;;;;;;;6.20;0.73;;;;;;;;;;5042788;28;20035;-48
2022/04/05 11:36:23;;;;;;;4.40;0.85;;;;;;;;;;5036830;28;20112;-48
2022/04/05 11:38:50;;;;;;;0.90;0.45;;;;;;;;;;5038825;28;20029;-49
2022/04/05 11:41:21;;;;;;;4.45;1.08;;;;;;;;;;5037830;28;20105;-48
2022/04/05 11:43:52;;;;;;;6.05;0.70;;;;;;;;;;5039189;28;20079;-48
2022/04/05 11:46:29;;;;;;;2.85;0.75;;;;;;;;;;5043129;28;20095;-48
2022/04/05 11:48:56;;;;;;;9.10;1.15;;;;;;;;;;5042483;28;20037;-48
2022/04/05 11:51:25;;;;;;;6.07;0.80;;;;;;;;;;5046169;28;20025;-51
2022/04/05 11:53:52;;;;;;;4.15;1.00;;;;;;;;;;5040953;28;20116;-49
2022/04/05 11:56:22;;;;;;;6.10;0.90;;;;;;;;;;5049362;28;20141;-48
2022/04/05 11:58:50;;;;;;;2.10;0.80;;;;;;;;;;5045217;28;20113;-49
2022/04/05 12:01:19;;;;;;;2.13;0.80;;;;;;;;;;5037595;28;20021;-51
2022/04/05 12:03:48;;;;;;;2.58;0.82;;;;;;;;;;5040581;28;20361;-52
2022/04/05 12:06:17;;;;;;;2.25;0.90;;;;;;;;;;5042060;28;20094;-50
2022/04/05 12:08:43;;;;;;;4.72;1.45;;;;;;;;;;5040418;28;20571;-49
2022/04/05 12:11:09;;;;;;;3.60;0.85;;;;;;;;;;5043574;28;20100;-49
2022/04/05 12:13:36;;;;;;;3.80;1.15;;;;;;;;;;5041960;28;20108;-49
2022/04/05 12:16:03;;;;;;;2.28;1.02;;;;;;;;;;5047130;28;20031;-52
2022/04/05 12:18:29;;;;;;;3.65;0.80;;;;;;;;;;5049735;28;20032;-48
2022/04/05 12:21:02;;;;;;;4.82;1.20;;;;;;;;;;5036930;28;20084;-48
2022/04/05 12:23:30;;;;;;;1.60;0.93;;;;;;;;;;5038208;28;20113;-48
2022/04/05 12:26:03;;;;;;;2.28;0.80;;;;;;;;;;5045278;28;20021;-48
2022/04/05 12:28:29;;;;;;;4.00;0.77;;;;;;;;;;5053092;28;20103;-49
2022/04/05 12:31:03;;;;;;;3.15;0.77;;;;;;;;;;5041283;28;20167;-49
2022/04/05 12:33:29;;;;;;;4.13;0.85;;;;;;;;;;5047095;28;20043;-48
2022/04/05 12:35:55;;;;;;;1.90;0.50;;;;;;;;;;5041300;28;20588;-49
2022/04/05 12:38:21;;;;;;;3.42;0.85;;;;;;;;;;5041552;28;20584;-48
2022/04/05 12:40:47;;;;;;;6.05;1.02;;;;;;;;;;5034345;28;20079;-48
2022/04/05 12:43:14;;;;;;;1.45;0.68;;;;;;;;;;5042414;28;20573;-50
2022/04/05 12:45:40;;;;;;;3.67;0.70;;;;;;;;;;5041207;28;20032;-51
2022/04/05 12:48:11;;;;;;;2.00;0.70;;;;;;;;;;5052430;28;20033;-51
2022/04/05 12:50:55;;;;;;;1.92;0.85;;;;;;;;;;5047109;28;20028;-50
2022/04/05 12:53:28;;;;;;;1.70;0.70;;;;;;;;;;5052991;28;20035;-49
2022/04/05 12:55:55;;;;;;;4.28;0.80;;;;;;;;;;5039647;28;20059;-50
2022/04/05 12:58:33;;;;;;;2.40;0.80;;;;;;;;;;5052863;28;20035;-51
2022/04/05 13:00:59;;;;;;;2.22;0.80;;;;;;;;;;5042288;28;20461;-52
2022/04/05 13:03:30;;;;;;;3.28;0.90;;;;;;;;;;5041090;28;20076;-49
2022/04/05 13:08:40;;;;;;;6.30;0.85;;;;;;;;;;5052874;28;20040;-48
2022/04/05 13:11:25;;;;;;;11.18;1.10;;;;;;;;;;5039576;28;20454;-50
2022/04/05 13:14:02;;;;;;;3.13;0.82;;;;;;;;;;5049180;28;20140;-50
2022/04/05 13:16:28;;;;;;;2.97;0.90;;;;;;;;;;5035095;28;20128;-50
2022/04/05 13:18:54;;;;;;;3.38;1.10;;;;;;;;;;5039391;28;20485;-49
2022/04/05 13:21:21;;;;;;;2.88;0.80;;;;;;;;;;5037487;28;20055;-50
2022/04/05 13:24:00;;;;;;;2.20;0.70;;;;;;;;;;5037522;28;20026;-49
2022/04/05 13:26:27;;;;;;;3.33;0.80;;;;;;;;;;5035110;28;20025;-49
2022/04/05 13:29:13;;;;;;;4.63;0.82;;;;;;;;;;5033844;28;20493;-48
2022/04/05 13:32:02;;;;;;;2.92;0.70;;;;;;;;;;5031038;28;20055;-53
2022/04/05 13:34:30;;;;;;;2.05;0.90;;;;;;;;;;5032645;28;20056;-48
2022/04/05 13:36:56;;;;;;;8.23;1.40;;;;;;;;;;5052229;28;20116;-48
2022/04/05 13:39:32;;;;;;;4.05;1.15;;;;;;;;;;5049008;28;20029;-48
2022/04/05 13:41:58;;;;;;;3.90;1.13;;;;;;;;;;5035746;28;20092;-48
2022/04/05 13:44:25;;;;;;;2.75;0.68;;;;;;;;;;5047941;28;20062;-50
2022/04/05 13:46:51;;;;;;;2.65;0.80;;;;;;;;;;5045933;28;20087;-48
2022/04/05 13:49:17;;;;;;;4.55;0.98;;;;;;;;;;5048977;28;20031;-48
2022/04/05 13:51:44;;;;;;;1.67;0.60;;;;;;;;;;5035941;28;20041;-50
2022/04/05 13:54:11;;;;;;;3.58;1.00;;;;;;;;;;5043560;28;20025;-48
2022/04/05 13:56:38;;;;;;;6.75;0.90;;;;;;;;;;5042163;28;20040;-48
2022/04/05 13:59:04;;;;;;;2.20;0.70;;;;;;;;;;5038992;28;20381;-49
2022/04/05 14:01:31;;;;;;;3.53;1.13;;;;;;;;;;5038528;28;20025;-51
2022/04/05 14:03:57;;;;;;;7.55;0.90;;;;;;;;;;5046244;28;20025;-49
2022/04/05 14:06:23;;;;;;;1.63;0.85;;;;;;;;;;5048877;28;20071;-52
2022/04/05 14:08:49;;;;;;;4.68;1.15;;;;;;;;;;5055473;28;20013;-49
2022/04/05 14:11:15;;;;;;;4.13;1.02;;;;;;;;;;5047890;28;20128;-52
2022/04/05 14:13:41;;;;;;;6.82;0.98;;;;;;;;;;5054414;28;20405;-54
2022/04/05 14:16:08;;;;;;;4.45;0.93;;;;;;;;;;5041332;28;20029;-50
2022/04/05 14:18:34;;;;;;;3.85;1.00;;;;;;;;;;5050153;28;20033;-52
2022/04/05 14:21:00;;;;;;;6.22;1.30;;;;;;;;;;5038654;28;20037;-49
2022/04/05 14:23:26;;;;;;;3.38;1.08;;;;;;;;;;5039742;28;20032;-49
2022/04/05 14:25:52;;;;;;;3.30;1.30;;;;;;;;;;5044469;28;20024;-48
2022/04/05 14:28:18;;;;;;;12.35;1.75;;;;;;;;;;5055378;28;20025;-48
2022/04/05 14:30:44;;;;;;;2.47;0.82;;;;;;;;;;5052220;28;20032;-48
2022/04/05 14:33:10;;;;;;;3.70;0.88;;;;;;;;;;5051296;28;20473;-48
2022/04/05 14:35:36;;;;;;;4.35;1.08;;;;;;;;;;5054626;28;20101;-49
2022/04/05 14:38:03;;;;;;;8.82;1.88;;;;;;;;;;5055031;28;20036;-54
2022/04/05 14:40:29;;;;;;;3.92;1.50;;;;;;;;;;5054626;28;20037;-52
2022/04/05 14:42:55;;;;;;;1.42;0.95;;;;;;;;;;5035661;28;20473;-52
2022/04/05 14:45:21;;;;;;;7.13;1.98;;;;;;;;;;5046981;28;20078;-49
2022/04/05 14:47:48;;;;;;;1.95;1.20;;;;;;;;;;5039918;28;20035;-50